createdAt,value
2023-12-20T06:14:06.019Z,99413.00
2023-12-20T06:16:32.822Z,99410.00
2023-12-20T06:19:16.370Z,99408.00
2023-12-20T06:21:45.384Z,99404.00
2023-12-20T06:24:29.356Z,99401.00
2023-12-20T06:26:56.674Z,99398.00
2023-12-20T06:29:27.946Z,99402.00
2023-12-20T06:31:55.035Z,99410.00
2023-12-20T06:34:22.023Z,99420.00
2023-12-20T06:36:49.032Z,99415.00
2023-12-20T06:39:18.763Z,99418.00
2023-12-20T06:41:53.957Z,99426.00
2023-12-20T06:44:20.977Z,99421.00
2023-12-20T06:46:47.761Z,99427.00
2023-12-20T06:49:23.011Z,99422.00
2023-12-20T06:51:50.256Z,99421.00
2023-12-20T06:54:20.253Z,99433.00
2023-12-20T06:56:47.120Z,99432.00
2023-12-20T06:59:14.986Z,99441.00
2023-12-20T07:01:51.643Z,99451.00
2023-12-20T07:04:26.772Z,99453.00
2023-12-20T07:06:57.965Z,99463.00
2023-12-20T07:09:27.829Z,99470.00
2023-12-20T07:11:57.560Z,99478.00
2023-12-20T07:14:29.372Z,99471.00
2023-12-20T07:17:00.891Z,99467.00
2023-12-20T07:19:54.602Z,99469.00
2023-12-20T07:22:23.684Z,99475.00
2023-12-20T07:24:58.788Z,99478.00
2023-12-20T07:27:26.243Z,99482.00
2023-12-20T07:29:59.190Z,99497.00
2023-12-20T07:32:34.295Z,99496.00
2023-12-20T07:35:07.487Z,99500.00
2023-12-20T07:37:49.600Z,99494.00
2023-12-20T07:40:29.929Z,99507.00
2023-12-20T07:44:02.236Z,99497.00
2023-12-20T07:47:20.884Z,99509.00
2023-12-20T07:57:05.974Z,99508.00
2023-12-20T08:00:20.024Z,99508.00
2023-12-20T08:03:48.888Z,99537.00
2023-12-20T08:07:03.977Z,99530.00
2023-12-20T08:10:39.583Z,99532.00
2023-12-20T08:30:40.192Z,99539.00
2023-12-20T08:33:29.795Z,99554.00
2023-12-20T08:36:29.836Z,99551.00
2023-12-20T08:39:30.285Z,99554.00
2023-12-20T08:45:32.378Z,99564.00
2023-12-20T08:48:24.837Z,99567.00
2023-12-20T08:54:51.431Z,99593.00
2023-12-20T08:57:46.856Z,99587.00
2023-12-20T09:00:31.098Z,99589.00
2023-12-20T09:03:38.364Z,99593.00
2023-12-20T09:07:06.126Z,99587.00
2023-12-20T09:16:46.965Z,99596.00
2023-12-20T09:23:28.659Z,99600.00
2023-12-20T09:30:03.040Z,99591.00
2023-12-20T09:32:40.308Z,99598.00
2023-12-20T09:35:48.150Z,99596.00
2023-12-20T09:48:26.558Z,99611.00
2023-12-20T09:59:03.906Z,99607.00
2023-12-20T10:04:50.217Z,99611.00
2023-12-20T10:05:18.879Z,99607.00
2023-12-20T10:09:00.037Z,99611.00
2023-12-20T10:11:48.104Z,99623.00
2023-12-20T10:14:36.026Z,99617.00
2023-12-20T10:17:24.705Z,99607.00
2023-12-20T10:20:50.760Z,99606.00
2023-12-20T10:24:26.429Z,99590.00
2023-12-20T10:30:32.989Z,99582.00
2023-12-20T10:37:40.784Z,99574.00
2023-12-20T10:48:39.992Z,99578.00
2023-12-20T10:55:10.530Z,99560.00
2023-12-20T10:58:16.189Z,99554.00
2023-12-20T11:01:40.811Z,99556.00
2023-12-20T11:07:59.987Z,99564.00
2023-12-20T11:11:59.829Z,99546.00
2023-12-20T11:18:56.394Z,99549.00
2023-12-20T11:21:49.620Z,99544.00
2023-12-20T11:28:45.923Z,99540.00
2023-12-20T11:36:12.866Z,99523.00
2023-12-20T11:39:16.104Z,99531.00
2023-12-20T11:45:41.583Z,99528.00
2023-12-20T11:48:14.608Z,99514.00
2023-12-20T11:50:41.539Z,99520.00
2023-12-20T11:53:08.501Z,99534.00
2023-12-20T11:55:36.826Z,99539.00
2023-12-20T11:58:06.246Z,99535.00
2023-12-20T12:00:33.265Z,99521.00
2023-12-20T12:03:04.886Z,99525.00
2023-12-20T12:05:43.948Z,99519.00
2023-12-20T12:08:11.750Z,99511.00
2023-12-20T12:10:38.810Z,99527.00
2023-12-20T12:13:31.501Z,99525.00
2023-12-20T12:16:29.758Z,99515.00
2023-12-20T12:19:25.632Z,99520.00
2023-12-20T12:22:13.860Z,99521.00
2023-12-20T12:25:15.855Z,99519.00
2023-12-20T12:28:18.021Z,99516.00
2023-12-20T12:31:32.614Z,99520.00
2023-12-20T12:34:17.016Z,99514.00
2023-12-20T12:40:09.891Z,99511.00
2023-12-20T12:43:13.841Z,99506.00
2023-12-20T12:45:54.431Z,99510.00
2023-12-20T12:48:36.241Z,99504.00
2023-12-20T12:52:08.965Z,99497.00
2023-12-20T12:57:44.941Z,99483.00
2023-12-20T13:00:38.570Z,99481.00
2023-12-20T13:03:29.994Z,99487.00
2023-12-20T13:06:19.556Z,99485.00
2023-12-20T13:09:12.627Z,99495.00
2023-12-20T13:15:12.390Z,99488.00
2023-12-20T13:18:05.916Z,99494.00
2023-12-20T13:21:02.111Z,99497.00
2023-12-20T13:23:52.869Z,99490.00
2023-12-20T13:26:41.888Z,99496.00
2023-12-20T13:29:32.517Z,99481.00
2023-12-20T13:32:05.870Z,99483.00
2023-12-20T13:35:06.731Z,99477.00
2023-12-20T13:37:38.331Z,99497.00
2023-12-20T13:41:02.632Z,99493.00
2023-12-20T13:43:48.188Z,99501.00
2023-12-20T13:46:53.154Z,99487.00
2023-12-20T13:50:10.157Z,99485.00
2023-12-20T13:53:23.723Z,99489.00
2023-12-20T14:00:05.154Z,99484.00
2023-12-20T14:03:00.219Z,99488.00
2023-12-20T14:06:08.701Z,99466.00
2023-12-20T14:09:27.611Z,99472.00
2023-12-20T14:12:15.225Z,99474.00
2023-12-20T14:15:11.090Z,99470.00
2023-12-20T14:21:32.931Z,99464.00
2023-12-20T14:31:19.353Z,99485.00
2023-12-20T14:37:58.173Z,99489.00
2023-12-20T14:40:39.997Z,99484.00
2023-12-20T14:47:22.327Z,99493.00
2023-12-20T14:50:03.825Z,99476.00
2023-12-20T14:55:45.724Z,99483.00
2023-12-20T14:58:42.066Z,99495.00
2023-12-20T15:01:29.318Z,99488.00
2023-12-20T15:04:40.215Z,99476.00
2023-12-20T15:07:22.968Z,99474.00
2023-12-20T15:10:06.259Z,99478.00
2023-12-20T15:12:51.797Z,99467.00
2023-12-20T15:15:39.747Z,99481.00
2023-12-20T15:18:50.934Z,99484.00
2023-12-20T15:22:06.615Z,99492.00
2023-12-20T15:24:55.868Z,99493.00
2023-12-20T15:27:39.061Z,99478.00
2023-12-20T15:30:29.401Z,99504.00
2023-12-20T15:33:07.486Z,99484.00
2023-12-20T15:36:00.562Z,99480.00
2023-12-20T15:38:30.018Z,99482.00
2023-12-20T15:41:11.408Z,99491.00
2023-12-20T16:58:07.384Z,99464.00
2023-12-20T17:01:21.024Z,99458.00
2023-12-20T17:08:00.921Z,99459.00
2023-12-20T17:10:27.849Z,99464.00
2023-12-20T17:13:40.960Z,99471.00
2023-12-20T17:20:46.065Z,99476.00
2023-12-20T17:31:21.922Z,99484.00
